createdAt,value
2023-02-09T00:04:06.076Z,10.20
2023-02-09T00:09:10.892Z,9.80
2023-02-09T00:14:16.216Z,10.43
2023-02-09T00:19:21.210Z,11.67
2023-02-09T00:24:26.300Z,10.43
2023-02-09T00:29:29.571Z,10.60
2023-02-09T00:34:33.977Z,10.67
2023-02-09T00:39:38.679Z,11.53
2023-02-09T00:44:42.109Z,12.20
2023-02-09T00:49:45.540Z,11.17
2023-02-09T00:54:50.221Z,11.27
2023-02-09T00:59:53.374Z,11.27
2023-02-09T01:04:56.683Z,11.37
2023-02-09T01:10:03.085Z,11.37
2023-02-09T01:15:06.765Z,10.33
2023-02-09T01:20:11.432Z,10.33
2023-02-09T01:25:16.130Z,12.60
2023-02-09T01:30:19.341Z,11.37
2023-02-09T01:35:22.800Z,11.83
2023-02-09T01:40:27.668Z,13.23
2023-02-09T01:45:35.179Z,12.07
2023-02-09T01:50:42.294Z,12.27
2023-02-09T01:55:52.652Z,12.23
2023-02-09T02:00:56.803Z,11.50
2023-02-09T02:06:05.855Z,12.00
2023-02-09T02:11:12.032Z,11.53
2023-02-09T02:16:29.803Z,11.93
2023-02-09T02:22:10.295Z,11.20
2023-02-09T02:27:26.267Z,11.97
2023-02-09T02:32:40.269Z,13.03
2023-02-09T02:37:56.072Z,11.90
2023-02-09T02:43:08.940Z,10.77
2023-02-09T02:48:25.688Z,11.63
2023-02-09T02:53:32.437Z,12.07
2023-02-09T02:58:37.876Z,11.77
2023-02-09T03:03:45.652Z,11.03
2023-02-09T03:08:54.646Z,11.67
2023-02-09T03:14:18.846Z,12.03
2023-02-09T03:19:36.669Z,13.90
2023-02-09T03:24:47.674Z,13.03
2023-02-09T03:29:53.803Z,11.20
2023-02-09T03:34:59.198Z,12.30
2023-02-09T03:40:02.573Z,11.67
2023-02-09T03:45:08.134Z,12.63
2023-02-09T03:50:12.905Z,12.07
2023-02-09T03:55:17.343Z,13.30
2023-02-09T04:00:21.333Z,13.53
2023-02-09T04:05:26.163Z,13.07
2023-02-09T04:10:29.598Z,11.20
2023-02-09T04:15:32.932Z,12.23
2023-02-09T04:20:37.649Z,12.43
2023-02-09T04:25:41.008Z,12.67
2023-02-09T04:30:44.891Z,11.57
2023-02-09T04:35:50.012Z,12.83
2023-02-09T04:40:55.292Z,13.57
2023-02-09T04:45:59.039Z,13.27
2023-02-09T04:51:03.715Z,16.50
2023-02-09T04:56:07.901Z,18.13
2023-02-09T05:01:13.761Z,16.17
2023-02-09T05:06:19.126Z,14.10
2023-02-09T05:11:24.671Z,12.70
2023-02-09T05:16:28.739Z,13.03
2023-02-09T05:21:33.646Z,13.23
2023-02-09T05:26:37.004Z,13.83
2023-02-09T05:31:40.484Z,13.13
2023-02-09T05:36:45.349Z,13.77
2023-02-09T05:42:06.242Z,13.30
2023-02-09T05:47:09.717Z,13.67
2023-02-09T05:52:15.218Z,13.87
2023-02-09T05:57:19.667Z,12.43
2023-02-09T06:02:23.300Z,13.47
2023-02-09T06:07:27.917Z,14.47
2023-02-09T06:12:34.935Z,15.60
2023-02-09T06:17:38.592Z,13.13
2023-02-09T06:22:43.166Z,14.03
2023-02-09T06:27:46.445Z,13.87
2023-02-09T06:32:49.996Z,13.50
2023-02-09T06:37:58.272Z,13.67
2023-02-09T06:43:01.578Z,14.20
2023-02-09T06:48:06.631Z,13.57
2023-02-09T06:53:11.372Z,13.97
2023-02-09T06:58:14.710Z,13.73
2023-02-09T07:03:17.966Z,15.00
2023-02-09T07:08:22.733Z,15.73
2023-02-09T07:13:26.071Z,15.00
2023-02-09T07:18:30.058Z,13.37
2023-02-09T07:23:35.085Z,26.10
2023-02-09T07:28:38.492Z,15.97
2023-02-09T07:33:41.810Z,14.30
2023-02-09T07:38:46.629Z,13.40
2023-02-09T07:43:50.140Z,14.33
2023-02-09T07:48:53.482Z,17.07
2023-02-09T07:54:01.603Z,16.93
2023-02-09T07:59:04.997Z,18.33
2023-02-09T08:04:08.253Z,16.63
2023-02-09T08:09:14.517Z,17.47
2023-02-09T08:14:22.121Z,18.50
2023-02-09T08:19:25.916Z,17.63
2023-02-09T08:24:31.971Z,17.10
2023-02-09T08:29:35.327Z,16.27
2023-02-09T08:34:39.641Z,18.90
2023-02-09T08:39:46.038Z,17.33
2023-02-09T08:44:49.431Z,17.23
2023-02-09T08:49:53.485Z,16.83
2023-02-09T08:55:07.754Z,16.70
2023-02-09T09:00:12.910Z,17.73
2023-02-09T09:05:16.618Z,16.43
2023-02-09T09:10:21.459Z,16.30
2023-02-09T09:15:24.884Z,14.73
2023-02-09T09:20:28.448Z,13.97
2023-02-09T09:25:33.216Z,14.10
2023-02-09T09:30:36.811Z,13.45
2023-02-09T09:35:40.023Z,12.93
2023-02-09T09:40:46.753Z,13.32
2023-02-09T09:45:50.636Z,12.98
2023-02-09T09:50:57.181Z,12.77
2023-02-09T09:56:05.463Z,12.48
2023-02-09T10:01:13.415Z,13.48
2023-02-09T10:06:19.269Z,14.13
2023-02-09T10:11:30.149Z,14.90
2023-02-09T10:16:38.342Z,13.98
2023-02-09T10:21:41.744Z,14.43
2023-02-09T10:27:04.162Z,15.00
2023-02-09T10:32:15.666Z,13.77
2023-02-09T10:37:22.753Z,14.30
2023-02-09T10:42:31.377Z,13.90
2023-02-09T10:47:34.739Z,15.23
2023-02-09T10:52:40.487Z,14.70
2023-02-09T10:57:45.320Z,15.57
2023-02-09T11:02:52.303Z,15.30
2023-02-09T11:07:59.065Z,16.03
2023-02-09T11:13:27.903Z,15.80
2023-02-09T11:19:01.480Z,15.20
2023-02-09T11:24:09.108Z,15.00
2023-02-09T11:29:23.457Z,15.90
2023-02-09T11:34:52.799Z,14.83
2023-02-09T11:40:03.029Z,15.53
2023-02-09T11:45:12.193Z,15.00
2023-02-09T11:50:25.519Z,15.90
2023-02-09T11:55:32.622Z,14.33
2023-02-09T12:00:56.027Z,15.07
2023-02-09T12:06:01.661Z,14.57
2023-02-09T12:11:16.521Z,13.83
2023-02-09T12:16:24.357Z,14.53
2023-02-09T12:21:32.422Z,14.13
2023-02-09T12:26:42.664Z,14.40
2023-02-09T12:32:24.929Z,14.17
2023-02-09T12:37:30.174Z,13.57
2023-02-09T12:42:41.747Z,13.02
2023-02-09T12:48:01.129Z,11.20
2023-02-09T12:53:46.956Z,13.10
2023-02-09T12:58:57.224Z,10.50
2023-02-09T13:04:05.828Z,10.30
2023-02-09T13:09:14.778Z,11.05
2023-02-09T13:14:19.677Z,11.65
2023-02-09T13:19:54.558Z,10.48
2023-02-09T13:25:01.006Z,9.85
2023-02-09T13:30:04.270Z,9.65
2023-02-09T13:35:21.496Z,10.52
2023-02-09T13:40:26.742Z,10.75
2023-02-09T13:45:30.885Z,9.48
2023-02-09T13:50:35.639Z,9.38
2023-02-09T13:55:40.899Z,9.68
2023-02-09T14:00:46.392Z,9.55
2023-02-09T14:05:57.081Z,9.32
2023-02-09T14:11:03.777Z,9.70
2023-02-09T14:16:08.047Z,9.10
2023-02-09T14:21:25.098Z,9.18
2023-02-09T14:26:30.237Z,9.00
2023-02-09T14:31:36.375Z,8.75
2023-02-09T14:36:41.689Z,8.48
2023-02-09T14:41:58.127Z,8.65
2023-02-09T14:47:02.502Z,8.45
2023-02-09T14:52:16.902Z,9.52
2023-02-09T14:57:32.083Z,8.40
2023-02-09T15:02:35.634Z,8.60
2023-02-09T15:07:43.174Z,9.05
2023-02-09T15:12:46.905Z,9.40
2023-02-09T15:17:51.850Z,9.07
2023-02-09T15:22:57.391Z,9.63
2023-02-09T15:28:02.964Z,9.43
2023-02-09T15:33:08.544Z,9.23
2023-02-09T15:38:16.291Z,10.27
2023-02-09T15:43:38.928Z,10.27
2023-02-09T15:48:42.947Z,10.93
2023-02-09T15:53:49.339Z,11.10
2023-02-09T15:58:53.570Z,10.60
2023-02-09T16:04:11.970Z,10.90
2023-02-09T16:09:22.636Z,10.33
2023-02-09T16:14:27.375Z,11.37
2023-02-09T16:19:30.909Z,10.93
2023-02-09T16:24:39.735Z,12.37
2023-02-09T16:29:43.010Z,11.30
2023-02-09T16:34:46.983Z,12.03
2023-02-09T16:39:51.706Z,11.77
2023-02-09T16:44:56.690Z,12.37
2023-02-09T16:50:01.918Z,12.33
2023-02-09T16:55:17.071Z,14.07
2023-02-09T17:00:25.300Z,13.93
2023-02-09T17:05:34.540Z,14.40
2023-02-09T17:10:48.420Z,13.60
2023-02-09T17:15:53.930Z,13.67
2023-02-09T17:21:02.821Z,12.60
2023-02-09T17:26:11.700Z,12.43
2023-02-09T17:31:18.917Z,12.80
2023-02-09T17:36:27.914Z,13.20
2023-02-09T17:41:38.449Z,14.40
2023-02-09T17:46:42.498Z,14.23
2023-02-09T17:51:47.663Z,14.03
2023-02-09T17:56:53.359Z,14.43
2023-02-09T18:01:58.962Z,14.40
2023-02-09T18:07:03.464Z,14.70
2023-02-09T18:12:16.693Z,14.50
2023-02-09T18:17:21.118Z,13.07
2023-02-09T18:22:24.866Z,13.77
2023-02-09T18:27:30.659Z,14.83
2023-02-09T18:32:36.030Z,13.57
2023-02-09T18:37:39.401Z,13.03
2023-02-09T18:42:48.363Z,12.40
2023-02-09T18:47:52.470Z,14.37
2023-02-09T18:52:58.825Z,13.43
2023-02-09T18:58:10.511Z,14.30
2023-02-09T19:03:17.050Z,14.03
2023-02-09T19:08:20.440Z,15.30
2023-02-09T19:13:27.058Z,13.67
2023-02-09T19:18:31.792Z,13.70
2023-02-09T19:23:35.354Z,13.27
2023-02-09T19:28:41.495Z,15.23
2023-02-09T19:33:45.843Z,14.23
2023-02-09T19:38:49.330Z,12.17
2023-02-09T19:43:58.412Z,14.20
2023-02-09T19:49:03.241Z,15.10
2023-02-09T19:54:06.934Z,13.83
2023-02-09T19:59:11.857Z,14.23
2023-02-09T20:04:15.667Z,12.90
2023-02-09T20:09:19.114Z,14.27
2023-02-09T20:14:28.575Z,14.67
2023-02-09T20:19:37.107Z,14.60
2023-02-09T20:24:44.410Z,14.23
2023-02-09T20:29:50.195Z,14.47
2023-02-09T20:34:54.796Z,13.87
2023-02-09T20:39:59.219Z,13.93
2023-02-09T20:45:24.084Z,11.70
2023-02-09T20:50:29.220Z,12.13
2023-02-09T20:55:32.788Z,12.40
2023-02-09T21:00:37.531Z,13.63
2023-02-09T21:05:40.888Z,13.93
2023-02-09T21:10:44.210Z,13.70
2023-02-09T21:15:51.923Z,13.33
2023-02-09T21:20:56.322Z,14.50
2023-02-09T21:26:04.797Z,14.33
2023-02-09T21:31:13.117Z,13.83
2023-02-09T21:36:16.277Z,12.97
2023-02-09T21:41:39.059Z,13.20
2023-02-09T21:46:44.147Z,13.90
2023-02-09T21:51:49.424Z,13.20
2023-02-09T21:56:52.690Z,14.60
2023-02-09T22:01:57.417Z,12.97
2023-02-09T22:07:00.814Z,13.47
2023-02-09T22:12:06.213Z,13.07
2023-02-09T22:17:11.145Z,12.73
2023-02-09T22:22:14.492Z,12.50
2023-02-09T22:27:17.860Z,14.17
2023-02-09T22:32:22.659Z,13.77
2023-02-09T22:37:26.003Z,13.33
2023-02-09T22:42:29.314Z,15.33
2023-02-09T22:47:35.545Z,15.03
2023-02-09T22:52:39.389Z,13.27
2023-02-09T22:57:43.098Z,14.83
2023-02-09T23:02:48.894Z,15.53
2023-02-09T23:07:52.228Z,15.57
2023-02-09T23:12:55.534Z,15.03
2023-02-09T23:18:00.435Z,15.07
2023-02-09T23:23:06.674Z,15.00
2023-02-09T23:28:09.897Z,13.70
2023-02-09T23:33:14.943Z,13.40
2023-02-09T23:38:20.125Z,13.73
2023-02-09T23:43:23.452Z,14.27
2023-02-09T23:48:30.416Z,13.87
2023-02-09T23:53:35.004Z,13.17
2023-02-09T23:58:40.303Z,13.30
